sensor_id;sensor_type;location;lat;lon;timestamp;pressure;altitude;pressure_sealevel;temperature;humidity
8697;BME280;4385;48.848;8.924;2023-04-08T00:00:53;97644.53;;;19.38;100.00
8697;BME280;4385;48.848;8.924;2023-04-08T00:03:19;97640.13;;;19.43;100.00
8697;BME280;4385;48.848;8.924;2023-04-08T00:05:44;97645.16;;;19.46;100.00
8697;BME280;4385;48.848;8.924;2023-04-08T00:08:10;97649.38;;;19.49;100.00
8697;BME280;4385;48.848;8.924;2023-04-08T00:10:35;97642.53;;;19.49;100.00
8697;BME280;4385;48.848;8.924;2023-04-08T00:13:01;97654.50;;;19.49;100.00
8697;BME280;4385;48.848;8.924;2023-04-08T00:15:26;97651.13;;;19.47;100.00
8697;BME280;4385;48.848;8.924;2023-04-08T00:17:51;97652.84;;;19.46;100.00
8697;BME280;4385;48.848;8.924;2023-04-08T00:20:19;97657.09;;;19.47;100.00
8697;BME280;4385;48.848;8.924;2023-04-08T00:22:44;97658.84;;;19.45;100.00
8697;BME280;4385;48.848;8.924;2023-04-08T00:25:09;97655.47;;;19.43;100.00
8697;BME280;4385;48.848;8.924;2023-04-08T00:27:35;97653.78;;;19.42;100.00
8697;BME280;4385;48.848;8.924;2023-04-08T00:30:00;97655.56;;;19.38;100.00
8697;BME280;4385;48.848;8.924;2023-04-08T00:32:26;97646.28;;;19.36;100.00
8697;BME280;4385;48.848;8.924;2023-04-08T00:34:52;97654.00;;;19.33;100.00
8697;BME280;4385;48.848;8.924;2023-04-08T00:37:18;97647.31;;;19.28;100.00
8697;BME280;4385;48.848;8.924;2023-04-08T00:39:43;97649.03;;;19.26;100.00
8697;BME280;4385;48.848;8.924;2023-04-08T00:42:08;97641.41;;;19.25;100.00
8697;BME280;4385;48.848;8.924;2023-04-08T00:44:34;97652.44;;;19.27;100.00
8697;BME280;4385;48.848;8.924;2023-04-08T00:46:59;97648.13;;;19.29;100.00
8697;BME280;4385;48.848;8.924;2023-04-08T00:49:25;97654.91;;;19.31;100.00
8697;BME280;4385;48.848;8.924;2023-04-08T00:51:50;97652.28;;;19.35;100.00
8697;BME280;4385;48.848;8.924;2023-04-08T00:54:16;97655.59;;;19.37;100.00
8697;BME280;4385;48.848;8.924;2023-04-08T00:56:42;97665.75;;;19.40;100.00
8697;BME280;4385;48.848;8.924;2023-04-08T00:59:09;97663.97;;;19.43;100.00
8697;BME280;4385;48.848;8.924;2023-04-08T01:01:43;97663.94;;;19.45;100.00
8697;BME280;4385;48.848;8.924;2023-04-08T01:07:21;97657.13;;;19.46;100.00
8697;BME280;4385;48.848;8.924;2023-04-08T01:09:52;97657.09;;;19.47;100.00
8697;BME280;4385;48.848;8.924;2023-04-08T01:12:24;97661.34;;;19.47;100.00
8697;BME280;4385;48.848;8.924;2023-04-08T01:14:56;97659.59;;;19.49;100.00
8697;BME280;4385;48.848;8.924;2023-04-08T01:17:23;97655.38;;;19.46;100.00
8697;BME280;4385;48.848;8.924;2023-04-08T01:19:49;97657.94;;;19.46;100.00
8697;BME280;4385;48.848;8.924;2023-04-08T01:22:36;97662.28;;;19.44;100.00
8697;BME280;4385;48.848;8.924;2023-04-08T01:25:11;97661.41;;;19.43;100.00
8697;BME280;4385;48.848;8.924;2023-04-08T01:27:38;97658.91;;;19.42;100.00
8697;BME280;4385;48.848;8.924;2023-04-08T01:30:05;97655.50;;;19.41;100.00
8697;BME280;4385;48.848;8.924;2023-04-08T01:32:32;97654.72;;;19.39;100.00
8697;BME280;4385;48.848;8.924;2023-04-08T01:34:59;97660.72;;;19.37;100.00
8697;BME280;4385;48.848;8.924;2023-04-08T01:37:27;97654.81;;;19.35;100.00
8697;BME280;4385;48.848;8.924;2023-04-08T01:39:53;97663.34;;;19.34;100.00
8697;BME280;4385;48.848;8.924;2023-04-08T01:42:21;97657.53;;;19.28;100.00
8697;BME280;4385;48.848;8.924;2023-04-08T01:44:48;97654.97;;;19.28;100.00
8697;BME280;4385;48.848;8.924;2023-04-08T01:47:14;97656.59;;;19.31;100.00
8697;BME280;4385;48.848;8.924;2023-04-08T01:49:40;97650.53;;;19.35;100.00
8697;BME280;4385;48.848;8.924;2023-04-08T01:52:08;97650.44;;;19.40;100.00
8697;BME280;4385;48.848;8.924;2023-04-08T01:54:33;97652.91;;;19.43;100.00
8697;BME280;4385;48.848;8.924;2023-04-08T01:57:00;97651.16;;;19.45;100.00
8697;BME280;4385;48.848;8.924;2023-04-08T01:59:28;97651.13;;;19.47;100.00
8697;BME280;4385;48.848;8.924;2023-04-08T02:01:56;97645.09;;;19.49;100.00
8697;BME280;4385;48.848;8.924;2023-04-08T02:04:22;97650.22;;;19.49;100.00
8697;BME280;4385;48.848;8.924;2023-04-08T02:06:47;97645.09;;;19.49;100.00
8697;BME280;4385;48.848;8.924;2023-04-08T02:09:13;97646.78;;;19.50;100.00
8697;BME280;4385;48.848;8.924;2023-04-08T02:11:38;97651.91;;;19.50;100.00
8697;BME280;4385;48.848;8.924;2023-04-08T02:14:04;97650.13;;;19.52;100.00
8697;BME280;4385;48.848;8.924;2023-04-08T02:16:42;97653.56;;;19.51;100.00
8697;BME280;4385;48.848;8.924;2023-04-08T02:19:24;97654.47;;;19.50;100.00
8697;BME280;4385;48.848;8.924;2023-04-08T02:21:57;97646.84;;;19.49;100.00
8697;BME280;4385;48.848;8.924;2023-04-08T02:24:25;97648.53;;;19.48;100.00
8697;BME280;4385;48.848;8.924;2023-04-08T02:26:52;97646.06;;;19.45;100.00
8697;BME280;4385;48.848;8.924;2023-04-08T02:29:20;97641.00;;;19.42;100.00
8697;BME280;4385;48.848;8.924;2023-04-08T02:31:45;97643.66;;;19.39;100.00
8697;BME280;4385;48.848;8.924;2023-04-08T02:34:12;97645.41;;;19.35;100.00
8697;BME280;4385;48.848;8.924;2023-04-08T02:36:38;97632.75;;;19.30;100.00
8697;BME280;4385;48.848;8.924;2023-04-08T02:39:05;97639.63;;;19.28;100.00
8697;BME280;4385;48.848;8.924;2023-04-08T02:41:30;97643.94;;;19.26;100.00
8697;BME280;4385;48.848;8.924;2023-04-08T02:43:56;97650.78;;;19.24;100.00
8697;BME280;4385;48.848;8.924;2023-04-08T02:46:21;97652.47;;;19.25;100.00
8697;BME280;4385;48.848;8.924;2023-04-08T02:48:47;97656.69;;;19.26;100.00
8697;BME280;4385;48.848;8.924;2023-04-08T02:51:12;97654.06;;;19.29;100.00
8697;BME280;4385;48.848;8.924;2023-04-08T02:53:37;97656.59;;;19.31;100.00
8697;BME280;4385;48.848;8.924;2023-04-08T02:56:03;97655.69;;;19.34;100.00
8697;BME280;4385;48.848;8.924;2023-04-08T02:58:28;97652.22;;;19.36;100.00
8697;BME280;4385;48.848;8.924;2023-04-08T03:00:53;97658.97;;;19.39;100.00
8697;BME280;4385;48.848;8.924;2023-04-08T03:03:19;97658.00;;;19.43;100.00
8697;BME280;4385;48.848;8.924;2023-04-08T03:05:51;97662.97;;;19.49;100.00
8697;BME280;4385;48.848;8.924;2023-04-08T03:08:16;97654.44;;;19.52;100.00
8697;BME280;4385;48.848;8.924;2023-04-08T03:10:41;97656.94;;;19.53;100.00
8697;BME280;4385;48.848;8.924;2023-04-08T03:13:07;97655.16;;;19.55;100.00
8697;BME280;4385;48.848;8.924;2023-04-08T03:15:32;97656.06;;;19.54;100.00
8697;BME280;4385;48.848;8.924;2023-04-08T03:17:57;97654.38;;;19.53;100.00
8697;BME280;4385;48.848;8.924;2023-04-08T03:20:23;97657.81;;;19.52;100.00
8697;BME280;4385;48.848;8.924;2023-04-08T03:22:48;97650.22;;;19.49;100.00
8697;BME280;4385;48.848;8.924;2023-04-08T03:25:13;97646.88;;;19.47;100.00
8697;BME280;4385;48.848;8.924;2023-04-08T03:27:38;97652.84;;;19.46;100.00
8697;BME280;4385;48.848;8.924;2023-04-08T03:30:04;97653.78;;;19.42;100.00
8697;BME280;4385;48.848;8.924;2023-04-08T03:32:30;97654.72;;;19.39;100.00
8697;BME280;4385;48.848;8.924;2023-04-08T03:34:55;97656.47;;;19.37;100.00
8697;BME280;4385;48.848;8.924;2023-04-08T03:37:20;97657.38;;;19.35;100.00
8697;BME280;4385;48.848;8.924;2023-04-08T03:39:45;97659.97;;;19.33;100.00
8697;BME280;4385;48.848;8.924;2023-04-08T03:42:11;97663.38;;;19.32;100.00
8697;BME280;4385;48.848;8.924;2023-04-08T03:44:36;97657.47;;;19.30;100.00
8697;BME280;4385;48.848;8.924;2023-04-08T03:47:01;97651.50;;;19.31;100.00
8697;BME280;4385;48.848;8.924;2023-04-08T03:49:27;97652.31;;;19.33;100.00
8697;BME280;4385;48.848;8.924;2023-04-08T03:51:52;97658.16;;;19.37;100.00
8697;BME280;4385;48.848;8.924;2023-04-08T03:54:17;97658.97;;;19.39;100.00
8697;BME280;4385;48.848;8.924;2023-04-08T03:56:42;97659.72;;;19.44;100.00
8697;BME280;4385;48.848;8.924;2023-04-08T03:59:08;97659.66;;;19.47;100.00
8697;BME280;4385;48.848;8.924;2023-04-08T04:01:33;97650.22;;;19.49;100.00
8697;BME280;4385;48.848;8.924;2023-04-08T04:03:58;97651.91;;;19.50;100.00
8697;BME280;4385;48.848;8.924;2023-04-08T04:06:24;97661.28;;;19.50;100.00
8697;BME280;4385;48.848;8.924;2023-04-08T04:08:52;97662.13;;;19.50;100.00
8697;BME280;4385;48.848;8.924;2023-04-08T04:11:18;97660.34;;;19.52;100.00
8697;BME280;4385;48.848;8.924;2023-04-08T04:13:43;97653.53;;;19.53;100.00
8697;BME280;4385;48.848;8.924;2023-04-08T04:16:09;97667.16;;;19.53;100.00
8697;BME280;4385;48.848;8.924;2023-04-08T04:18:34;97662.91;;;19.52;100.00
8697;BME280;4385;48.848;8.924;2023-04-08T04:20:59;97668.91;;;19.51;100.00
8697;BME280;4385;48.848;8.924;2023-04-08T04:23:25;97664.72;;;19.49;100.00
8697;BME280;4385;48.848;8.924;2023-04-08T04:25:50;97665.63;;;19.46;100.00
8697;BME280;4385;48.848;8.924;2023-04-08T04:28:16;97663.94;;;19.45;100.00
8697;BME280;4385;48.848;8.924;2023-04-08T04:30:41;97667.38;;;19.44;100.00
8697;BME280;4385;48.848;8.924;2023-04-08T04:33:06;97666.63;;;19.39;100.00
8697;BME280;4385;48.848;8.924;2023-04-08T04:35:32;97667.56;;;19.36;100.00
8697;BME280;4385;48.848;8.924;2023-04-08T04:37:57;97676.97;;;19.34;100.00
8697;BME280;4385;48.848;8.924;2023-04-08T04:40:23;97671.94;;;19.31;100.00
8697;BME280;4385;48.848;8.924;2023-04-08T04:42:48;97671.06;;;19.30;100.00
8697;BME280;4385;48.848;8.924;2023-04-08T04:45:13;97674.53;;;19.29;100.00
8697;BME280;4385;48.848;8.924;2023-04-08T04:47:39;97663.41;;;19.30;100.00
8697;BME280;4385;48.848;8.924;2023-04-08T04:50:04;97671.91;;;19.33;100.00
8697;BME280;4385;48.848;8.924;2023-04-08T04:52:30;97675.25;;;19.35;100.00
8697;BME280;4385;48.848;8.924;2023-04-08T04:54:56;97674.38;;;19.36;100.00
8697;BME280;4385;48.848;8.924;2023-04-08T04:57:22;97665.91;;;19.34;100.00
8697;BME280;4385;48.848;8.924;2023-04-08T04:59:47;97676.00;;;19.38;100.00
8697;BME280;4385;48.848;8.924;2023-04-08T05:02:12;97680.28;;;19.39;100.00
8697;BME280;4385;48.848;8.924;2023-04-08T05:04:37;97675.13;;;19.41;100.00
8697;BME280;4385;48.848;8.924;2023-04-08T05:07:03;97672.50;;;19.44;100.00
8697;BME280;4385;48.848;8.924;2023-04-08T05:09:29;97676.72;;;19.45;100.00
8697;BME280;4385;48.848;8.924;2023-04-08T05:11:55;97681.72;;;19.50;100.00
8697;BME280;4385;48.848;8.924;2023-04-08T05:14:20;97682.66;;;19.47;100.00
8697;BME280;4385;48.848;8.924;2023-04-08T05:16:45;97694.53;;;19.48;100.00
8697;BME280;4385;48.848;8.924;2023-04-08T05:19:11;97692.88;;;19.47;100.00
8697;BME280;4385;48.848;8.924;2023-04-08T05:21:36;97694.63;;;19.45;100.00
8697;BME280;4385;48.848;8.924;2023-04-08T05:24:01;97693.78;;;19.43;100.00
8697;BME280;4385;48.848;8.924;2023-04-08T05:26:27;97697.28;;;19.40;100.00
8697;BME280;4385;48.848;8.924;2023-04-08T05:28:52;97697.31;;;19.39;100.00
8697;BME280;4385;48.848;8.924;2023-04-08T05:31:18;97699.09;;;19.35;100.00
8697;BME280;4385;48.848;8.924;2023-04-08T05:33:44;97693.25;;;19.30;100.00
8697;BME280;4385;48.848;8.924;2023-04-08T05:36:10;97701.81;;;19.27;100.00
8697;BME280;4385;48.848;8.924;2023-04-08T05:38:35;97698.47;;;19.25;100.00
8697;BME280;4385;48.848;8.924;2023-04-08T05:41:01;97705.31;;;19.23;100.00
8697;BME280;4385;48.848;8.924;2023-04-08T05:43:26;97701.09;;;19.22;100.00
8697;BME280;4385;48.848;8.924;2023-04-08T05:45:51;97710.41;;;19.23;100.00
8697;BME280;4385;48.848;8.924;2023-04-08T05:48:17;97705.31;;;19.23;100.00
8697;BME280;4385;48.848;8.924;2023-04-08T05:50:42;97715.53;;;19.23;100.00
8697;BME280;4385;48.848;8.924;2023-04-08T05:53:08;97712.09;;;19.24;100.00
8697;BME280;4385;48.848;8.924;2023-04-08T05:55:33;97717.16;;;19.26;100.00
8697;BME280;4385;48.848;8.924;2023-04-08T05:57:59;97725.69;;;19.26;100.00
8697;BME280;4385;48.848;8.924;2023-04-08T06:00:24;97722.22;;;19.29;100.00
8697;BME280;4385;48.848;8.924;2023-04-08T06:02:50;97722.19;;;19.30;100.00
8697;BME280;4385;48.848;8.924;2023-04-08T06:05:16;97723.03;;;19.31;100.00
8697;BME280;4385;48.848;8.924;2023-04-08T06:07:43;97734.03;;;19.35;100.00
8697;BME280;4385;48.848;8.924;2023-04-08T06:10:08;97732.25;;;19.37;100.00
8697;BME280;4385;48.848;8.924;2023-04-08T06:12:35;97728.84;;;19.38;100.00
8697;BME280;4385;48.848;8.924;2023-04-08T06:15:01;97734.81;;;19.37;100.00
8697;BME280;4385;48.848;8.924;2023-04-08T06:17:26;97734.03;;;19.35;100.00
8697;BME280;4385;48.848;8.924;2023-04-08T06:19:51;97735.78;;;19.33;100.00
8697;BME280;4385;48.848;8.924;2023-04-08T06:22:16;97736.66;;;19.31;100.00
8697;BME280;4385;48.848;8.924;2023-04-08T06:24:42;97743.56;;;19.26;100.00
8697;BME280;4385;48.848;8.924;2023-04-08T06:27:07;97734.22;;;19.25;100.00
8697;BME280;4385;48.848;8.924;2023-04-08T06:29:33;97743.63;;;19.23;100.00
8697;BME280;4385;48.848;8.924;2023-04-08T06:31:58;97749.69;;;19.19;100.00
8697;BME280;4385;48.848;8.924;2023-04-08T06:34:23;97754.81;;;19.19;100.00
8697;BME280;4385;48.848;8.924;2023-04-08T06:36:49;97760.78;;;19.16;100.00
8697;BME280;4385;48.848;8.924;2023-04-08T06:39:14;97759.16;;;19.14;100.00
8697;BME280;4385;48.848;8.924;2023-04-08T06:41:41;97775.38;;;19.13;100.00
8697;BME280;4385;48.848;8.924;2023-04-08T06:44:06;97761.78;;;19.11;100.00
8697;BME280;4385;48.848;8.924;2023-04-08T06:46:31;97761.75;;;19.12;100.00
8697;BME280;4385;48.848;8.924;2023-04-08T06:48:56;97753.16;;;19.15;100.00
8697;BME280;4385;48.848;8.924;2023-04-08T06:51:22;97755.66;;;19.18;100.00
8697;BME280;4385;48.848;8.924;2023-04-08T06:53:47;97759.84;;;19.22;100.00
8697;BME280;4385;48.848;8.924;2023-04-08T06:56:13;97754.72;;;19.24;100.00
8697;BME280;4385;48.848;8.924;2023-04-08T06:58:38;97755.47;;;19.27;100.00
8697;BME280;4385;48.848;8.924;2023-04-08T07:01:03;97759.66;;;19.31;100.00
8697;BME280;4385;48.848;8.924;2023-04-08T07:03:29;97761.25;;;19.36;100.00
8697;BME280;4385;48.848;8.924;2023-04-08T07:05:54;97764.63;;;19.38;100.00
8697;BME280;4385;48.848;8.924;2023-04-08T07:08:19;97765.41;;;19.40;100.00
8697;BME280;4385;48.848;8.924;2023-04-08T07:10:45;97770.50;;;19.41;100.00
8697;BME280;4385;48.848;8.924;2023-04-08T07:13:10;97774.78;;;19.41;100.00
8697;BME280;4385;48.848;8.924;2023-04-08T07:15:36;97773.09;;;19.40;100.00
8697;BME280;4385;48.848;8.924;2023-04-08T07:18:01;97773.91;;;19.42;100.00
8697;BME280;4385;48.848;8.924;2023-04-08T07:20:27;97775.63;;;19.40;100.00
8697;BME280;4385;48.848;8.924;2023-04-08T07:22:52;97776.53;;;19.39;100.00
8697;BME280;4385;48.848;8.924;2023-04-08T07:25:17;97783.38;;;19.37;100.00
8697;BME280;4385;48.848;8.924;2023-04-08T07:27:42;97784.25;;;19.36;100.00
8697;BME280;4385;48.848;8.924;2023-04-08T07:30:08;97789.44;;;19.33;100.00
8697;BME280;4385;48.848;8.924;2023-04-08T07:32:33;97789.47;;;19.31;100.00
8697;BME280;4385;48.848;8.924;2023-04-08T07:34:59;97788.59;;;19.30;100.00
8697;BME280;4385;48.848;8.924;2023-04-08T07:37:28;97789.53;;;19.28;100.00
8697;BME280;4385;48.848;8.924;2023-04-08T07:39:53;97792.13;;;19.25;100.00
8697;BME280;4385;48.848;8.924;2023-04-08T07:42:19;97794.69;;;19.25;100.00
8697;BME280;4385;48.848;8.924;2023-04-08T07:44:44;97802.41;;;19.23;100.00
8697;BME280;4385;48.848;8.924;2023-04-08T07:47:10;97798.16;;;19.22;100.00
8697;BME280;4385;48.848;8.924;2023-04-08T07:49:36;97801.56;;;19.21;100.00
8697;BME280;4385;48.848;8.924;2023-04-08T07:52:01;97793.03;;;19.24;100.00
8697;BME280;4385;48.848;8.924;2023-04-08T07:54:27;97797.16;;;19.29;100.00
8697;BME280;4385;48.848;8.924;2023-04-08T07:56:52;97807.31;;;19.33;100.00
8697;BME280;4385;48.848;8.924;2023-04-08T07:59:17;97803.09;;;19.31;100.00
8697;BME280;4385;48.848;8.924;2023-04-08T08:01:43;97795.31;;;19.36;100.00
8697;BME280;4385;48.848;8.924;2023-04-08T08:04:08;97811.50;;;19.35;100.00
8697;BME280;4385;48.848;8.924;2023-04-08T08:06:33;97818.38;;;19.33;100.00
8697;BME280;4385;48.848;8.924;2023-04-08T08:08:59;97809.13;;;19.27;100.00
8697;BME280;4385;48.848;8.924;2023-04-08T08:11:25;97813.47;;;19.24;100.00
8697;BME280;4385;48.848;8.924;2023-04-08T08:13:53;97810.16;;;19.18;100.00
8697;BME280;4385;48.848;8.924;2023-04-08T08:16:18;97806.78;;;19.16;100.00
8697;BME280;4385;48.848;8.924;2023-04-08T08:18:44;97816.19;;;19.16;100.00
8697;BME280;4385;48.848;8.924;2023-04-08T08:21:10;97822.13;;;19.15;100.00
8697;BME280;4385;48.848;8.924;2023-04-08T08:23:35;97816.25;;;19.11;100.00
8697;BME280;4385;48.848;8.924;2023-04-08T08:26:03;97823.09;;;19.07;100.00
8697;BME280;4385;48.848;8.924;2023-04-08T08:28:29;97829.91;;;19.09;100.00
8697;BME280;4385;48.848;8.924;2023-04-08T08:30:54;97824.81;;;19.07;100.00
8697;BME280;4385;48.848;8.924;2023-04-08T08:33:19;97826.56;;;19.05;100.00
8697;BME280;4385;48.848;8.924;2023-04-08T08:35:45;97831.72;;;19.03;100.00
8697;BME280;4385;48.848;8.924;2023-04-08T08:38:10;97819.00;;;19.00;100.00
8697;BME280;4385;48.848;8.924;2023-04-08T08:40:37;97830.88;;;19.01;100.00
8697;BME280;4385;48.848;8.924;2023-04-08T08:43:03;97828.31;;;19.01;100.00
8697;BME280;4385;48.848;8.924;2023-04-08T08:45:28;97829.22;;;19.00;100.00
8697;BME280;4385;48.848;8.924;2023-04-08T08:47:55;97838.53;;;19.01;100.00
8697;BME280;4385;48.848;8.924;2023-04-08T08:50:20;97839.38;;;19.03;100.00
8697;BME280;4385;48.848;8.924;2023-04-08T08:52:51;97835.94;;;19.04;100.00
8697;BME280;4385;48.848;8.924;2023-04-08T08:55:20;97842.81;;;19.01;100.00
8697;BME280;4385;48.848;8.924;2023-04-08T08:57:49;97840.22;;;19.02;100.00
8697;BME280;4385;48.848;8.924;2023-04-08T09:00:15;97838.50;;;19.04;100.00
8697;BME280;4385;48.848;8.924;2023-04-08T09:02:41;97840.16;;;19.05;100.00
8697;BME280;4385;48.848;8.924;2023-04-08T09:05:06;97833.38;;;19.04;100.00
8697;BME280;4385;48.848;8.924;2023-04-08T09:07:35;97839.31;;;19.06;100.00
8697;BME280;4385;48.848;8.924;2023-04-08T09:10:01;97842.69;;;19.07;100.00
8697;BME280;4385;48.848;8.924;2023-04-08T09:12:26;97840.13;;;19.07;100.00
8697;BME280;4385;48.848;8.924;2023-04-08T09:15:06;97844.38;;;19.08;100.00
8697;BME280;4385;48.848;8.924;2023-04-08T09:17:39;97840.13;;;19.09;100.00
8697;BME280;4385;48.848;8.924;2023-04-08T09:22:34;97844.41;;;19.06;100.00
8697;BME280;4385;48.848;8.924;2023-04-08T09:25:36;97841.84;;;19.08;100.00
8697;BME280;4385;48.848;8.924;2023-04-08T09:28:02;97846.09;;;19.09;100.00
8697;BME280;4385;48.848;8.924;2023-04-08T09:30:27;97850.34;;;19.07;100.00
8697;BME280;4385;48.848;8.924;2023-04-08T09:32:54;97841.88;;;19.06;100.00
8697;BME280;4385;48.848;8.924;2023-04-08T09:35:20;97848.66;;;19.07;100.00
8697;BME280;4385;48.848;8.924;2023-04-08T09:37:46;97849.53;;;19.06;100.00
8697;BME280;4385;48.848;8.924;2023-04-08T09:40:13;97846.97;;;19.06;100.00
8697;BME280;4385;48.848;8.924;2023-04-08T09:42:43;97846.97;;;19.06;100.00
8697;BME280;4385;48.848;8.924;2023-04-08T09:45:09;97850.41;;;19.04;100.00
8697;BME280;4385;48.848;8.924;2023-04-08T09:48:09;97850.41;;;19.04;100.00
8697;BME280;4385;48.848;8.924;2023-04-08T09:50:41;97850.44;;;19.02;100.00
8697;BME280;4385;48.848;8.924;2023-04-08T09:53:18;97852.13;;;19.03;100.00
8697;BME280;4385;48.848;8.924;2023-04-08T09:55:49;97849.59;;;19.03;100.00
8697;BME280;4385;48.848;8.924;2023-04-08T09:58:21;97841.91;;;19.03;100.00
8697;BME280;4385;48.848;8.924;2023-04-08T10:00:51;97842.75;;;19.04;100.00
8697;BME280;4385;48.848;8.924;2023-04-08T10:03:39;97846.16;;;19.04;100.00
8697;BME280;4385;48.848;8.924;2023-04-08T10:06:05;97850.34;;;19.07;100.00
8697;BME280;4385;48.848;8.924;2023-04-08T10:08:32;97841.88;;;19.06;100.00
8697;BME280;4385;48.848;8.924;2023-04-08T10:10:58;97844.38;;;19.08;100.00
8697;BME280;4385;48.848;8.924;2023-04-08T10:13:24;97842.69;;;19.09;100.00
8697;BME280;4385;48.848;8.924;2023-04-08T10:16:18;97852.06;;;19.10;100.00
8697;BME280;4385;48.848;8.924;2023-04-08T10:18:46;97852.88;;;19.10;100.00
8697;BME280;4385;48.848;8.924;2023-04-08T10:21:40;97852.06;;;19.08;100.00
8697;BME280;4385;48.848;8.924;2023-04-08T10:24:12;97846.97;;;19.06;100.00
8697;BME280;4385;48.848;8.924;2023-04-08T10:26:38;97849.53;;;19.06;100.00
8697;BME280;4385;48.848;8.924;2023-04-08T10:31:52;97845.28;;;19.04;100.00
8697;BME280;4385;48.848;8.924;2023-04-08T10:34:19;97850.44;;;19.02;100.00
8697;BME280;4385;48.848;8.924;2023-04-08T10:36:45;97849.66;;;19.00;100.00
8697;BME280;4385;48.848;8.924;2023-04-08T10:39:12;97841.97;;;19.00;100.00
8697;BME280;4385;48.848;8.924;2023-04-08T10:41:50;97846.25;;;19.00;100.00
8697;BME280;4385;48.848;8.924;2023-04-08T10:44:19;97847.94;;;18.99;100.00
8697;BME280;4385;48.848;8.924;2023-04-08T10:46:45;97846.25;;;19.00;100.00
8697;BME280;4385;48.848;8.924;2023-04-08T10:49:12;97842.84;;;18.99;100.00
8697;BME280;4385;48.848;8.924;2023-04-08T10:51:38;97842.81;;;19.01;100.00
8697;BME280;4385;48.848;8.924;2023-04-08T10:54:08;97847.91;;;19.01;100.00
8697;BME280;4385;48.848;8.924;2023-04-08T10:56:35;97850.38;;;19.05;100.00
8697;BME280;4385;48.848;8.924;2023-04-08T10:59:00;97845.28;;;19.05;100.00
8697;BME280;4385;48.848;8.924;2023-04-08T11:01:26;97840.16;;;19.05;100.00
8697;BME280;4385;48.848;8.924;2023-04-08T11:03:52;97849.56;;;19.05;100.00
8697;BME280;4385;48.848;8.924;2023-04-08T11:06:17;97844.41;;;19.06;100.00
8697;BME280;4385;48.848;8.924;2023-04-08T11:08:43;97841.88;;;19.06;100.00
8697;BME280;4385;48.848;8.924;2023-04-08T11:11:09;97841.88;;;19.06;100.00
8697;BME280;4385;48.848;8.924;2023-04-08T11:13:39;97847.78;;;19.07;100.00
8697;BME280;4385;48.848;8.924;2023-04-08T11:16:06;97844.41;;;19.06;100.00
8697;BME280;4385;48.848;8.924;2023-04-08T11:18:37;97840.16;;;19.05;100.00
8697;BME280;4385;48.848;8.924;2023-04-08T11:21:07;97843.56;;;19.06;100.00
8697;BME280;4385;48.848;8.924;2023-04-08T11:23:33;97845.28;;;19.05;100.00
8697;BME280;4385;48.848;8.924;2023-04-08T11:25:58;97844.44;;;19.05;100.00
8697;BME280;4385;48.848;8.924;2023-04-08T11:28:24;97846.16;;;19.04;100.00
8697;BME280;4385;48.848;8.924;2023-04-08T11:30:50;97845.28;;;19.05;100.00
8697;BME280;4385;48.848;8.924;2023-04-08T11:33:16;97845.28;;;19.04;100.00
8697;BME280;4385;48.848;8.924;2023-04-08T11:35:42;97845.28;;;19.05;100.00
8697;BME280;4385;48.848;8.924;2023-04-08T11:38:08;97840.16;;;19.05;100.00
8697;BME280;4385;48.848;8.924;2023-04-08T11:40:34;97848.69;;;19.04;100.00
8697;BME280;4385;48.848;8.924;2023-04-08T11:43:08;97838.50;;;19.03;100.00
8697;BME280;4385;48.848;8.924;2023-04-08T11:45:37;97836.00;;;19.01;100.00
8697;BME280;4385;48.848;8.924;2023-04-08T11:48:13;97841.09;;;19.01;100.00
8697;BME280;4385;48.848;8.924;2023-04-08T11:50:40;97828.31;;;19.01;100.00
8697;BME280;4385;48.848;8.924;2023-04-08T11:53:19;97835.09;;;19.02;100.00
8697;BME280;4385;48.848;8.924;2023-04-08T11:55:44;97830.00;;;19.02;100.00
8697;BME280;4385;48.848;8.924;2023-04-08T11:58:10;97831.66;;;19.06;100.00
8697;BME280;4385;48.848;8.924;2023-04-08T12:00:36;97829.91;;;19.09;100.00
8697;BME280;4385;48.848;8.924;2023-04-08T12:03:03;97833.28;;;19.11;100.00
8697;BME280;4385;48.848;8.924;2023-04-08T12:05:28;97833.28;;;19.11;100.00
8697;BME280;4385;48.848;8.924;2023-04-08T12:07:53;97835.81;;;19.12;100.00
8697;BME280;4385;48.848;8.924;2023-04-08T12:10:19;97835.81;;;19.12;100.00
8697;BME280;4385;48.848;8.924;2023-04-08T12:12:44;97841.78;;;19.13;100.00
8697;BME280;4385;48.848;8.924;2023-04-08T12:15:10;97834.94;;;19.13;100.00
8697;BME280;4385;48.848;8.924;2023-04-08T12:17:35;97843.44;;;19.14;100.00
8697;BME280;4385;48.848;8.924;2023-04-08T12:20:03;97839.19;;;19.14;100.00
8697;BME280;4385;48.848;8.924;2023-04-08T12:22:28;97845.97;;;19.15;100.00
8697;BME280;4385;48.848;8.924;2023-04-08T12:24:54;97838.34;;;19.14;100.00
8697;BME280;4385;48.848;8.924;2023-04-08T12:27:19;97841.78;;;19.13;100.00
8697;BME280;4385;48.848;8.924;2023-04-08T12:29:45;97852.06;;;19.10;100.00
8697;BME280;4385;48.848;8.924;2023-04-08T12:32:10;97849.50;;;19.10;100.00
8697;BME280;4385;48.848;8.924;2023-04-08T12:34:36;97847.78;;;19.09;100.00
8697;BME280;4385;48.848;8.924;2023-04-08T12:37:01;97845.25;;;19.09;100.00
8697;BME280;4385;48.848;8.924;2023-04-08T12:39:26;97841.88;;;19.06;100.00
8697;BME280;4385;48.848;8.924;2023-04-08T12:41:52;97848.66;;;19.07;100.00
8697;BME280;4385;48.848;8.924;2023-04-08T12:44:17;97849.50;;;19.08;100.00
8697;BME280;4385;48.848;8.924;2023-04-08T12:46:43;97842.69;;;19.09;100.00
8697;BME280;4385;48.848;8.924;2023-04-08T12:49:08;97843.53;;;19.09;100.00
8697;BME280;4385;48.848;8.924;2023-04-08T12:51:34;97846.94;;;19.10;100.00
8697;BME280;4385;48.848;8.924;2023-04-08T12:54:01;97843.53;;;19.09;100.00
8697;BME280;4385;48.848;8.924;2023-04-08T12:56:28;97849.50;;;19.10;100.00
8697;BME280;4385;48.848;8.924;2023-04-08T12:58:53;97849.47;;;19.11;100.00
8697;BME280;4385;48.848;8.924;2023-04-08T13:01:20;97844.38;;;19.11;100.00
8697;BME280;4385;48.848;8.924;2023-04-08T13:03:45;97839.25;;;19.11;100.00
8697;BME280;4385;48.848;8.924;2023-04-08T13:06:12;97837.53;;;19.12;100.00
8697;BME280;4385;48.848;8.924;2023-04-08T13:08:37;97836.66;;;19.13;100.00
8697;BME280;4385;48.848;8.924;2023-04-08T13:11:02;97832.41;;;19.12;100.00
8697;BME280;4385;48.848;8.924;2023-04-08T13:13:27;97840.06;;;19.12;100.00
8697;BME280;4385;48.848;8.924;2023-04-08T13:15:53;97833.28;;;19.11;100.00